sensor_id;sensor_type;location;lat;lon;timestamp;P1;durP1;ratioP1;P2;durP2;ratioP2
54919;SDS011;63804;53.120;8.764;2023-07-20T00:00:53;2.03;;;1.00;;
54919;SDS011;63804;53.120;8.764;2023-07-20T00:03:21;1.67;;;1.00;;
54919;SDS011;63804;53.120;8.764;2023-07-20T00:05:52;1.70;;;1.02;;
54919;SDS011;63804;53.120;8.764;2023-07-20T00:08:19;2.28;;;1.00;;
54919;SDS011;63804;53.120;8.764;2023-07-20T00:10:46;3.35;;;1.00;;
54919;SDS011;63804;53.120;8.764;2023-07-20T00:13:14;2.67;;;1.10;;
54919;SDS011;63804;53.120;8.764;2023-07-20T00:15:42;2.90;;;1.10;;
54919;SDS011;63804;53.120;8.764;2023-07-20T00:18:10;2.70;;;1.15;;
54919;SDS011;63804;53.120;8.764;2023-07-20T00:20:37;2.28;;;1.30;;
54919;SDS011;63804;53.120;8.764;2023-07-20T00:23:05;4.15;;;1.10;;
54919;SDS011;63804;53.120;8.764;2023-07-20T00:25:32;2.17;;;1.42;;
54919;SDS011;63804;53.120;8.764;2023-07-20T00:28:01;2.25;;;1.10;;
54919;SDS011;63804;53.120;8.764;2023-07-20T00:30:28;2.33;;;1.25;;
54919;SDS011;63804;53.120;8.764;2023-07-20T00:32:56;3.42;;;1.40;;
54919;SDS011;63804;53.120;8.764;2023-07-20T00:35:23;2.70;;;1.60;;
54919;SDS011;63804;53.120;8.764;2023-07-20T00:37:50;5.55;;;1.70;;
54919;SDS011;63804;53.120;8.764;2023-07-20T00:40:18;5.47;;;2.10;;
54919;SDS011;63804;53.120;8.764;2023-07-20T00:42:45;5.57;;;2.00;;
54919;SDS011;63804;53.120;8.764;2023-07-20T00:45:12;4.65;;;2.00;;
54919;SDS011;63804;53.120;8.764;2023-07-20T00:47:39;4.97;;;1.75;;
54919;SDS011;63804;53.120;8.764;2023-07-20T00:50:07;3.78;;;2.15;;
54919;SDS011;63804;53.120;8.764;2023-07-20T00:52:37;3.30;;;1.92;;
54919;SDS011;63804;53.120;8.764;2023-07-20T00:55:06;4.97;;;2.00;;
54919;SDS011;63804;53.120;8.764;2023-07-20T00:57:34;3.97;;;2.03;;
54919;SDS011;63804;53.120;8.764;2023-07-20T01:00:02;3.50;;;1.90;;
54919;SDS011;63804;53.120;8.764;2023-07-20T01:02:29;3.10;;;1.90;;
54919;SDS011;63804;53.120;8.764;2023-07-20T01:04:57;3.58;;;1.98;;
54919;SDS011;63804;53.120;8.764;2023-07-20T01:12:41;6.15;;;2.15;;
54919;SDS011;63804;53.120;8.764;2023-07-20T01:15:10;9.48;;;2.65;;
54919;SDS011;63804;53.120;8.764;2023-07-20T01:17:37;7.22;;;2.35;;
54919;SDS011;63804;53.120;8.764;2023-07-20T01:20:06;7.85;;;2.08;;
54919;SDS011;63804;53.120;8.764;2023-07-20T01:22:45;3.67;;;1.40;;
54919;SDS011;63804;53.120;8.764;2023-07-20T01:31:23;4.10;;;1.40;;
54919;SDS011;63804;53.120;8.764;2023-07-20T01:33:50;2.72;;;1.33;;
54919;SDS011;63804;53.120;8.764;2023-07-20T01:36:21;3.35;;;1.67;;
54919;SDS011;63804;53.120;8.764;2023-07-20T01:38:51;2.88;;;1.30;;
54919;SDS011;63804;53.120;8.764;2023-07-20T01:41:19;2.47;;;1.65;;
54919;SDS011;63804;53.120;8.764;2023-07-20T01:43:47;2.92;;;1.40;;
54919;SDS011;63804;53.120;8.764;2023-07-20T01:46:14;3.38;;;1.50;;
54919;SDS011;63804;53.120;8.764;2023-07-20T01:48:42;4.32;;;2.20;;
54919;SDS011;63804;53.120;8.764;2023-07-20T01:51:10;4.72;;;2.10;;
54919;SDS011;63804;53.120;8.764;2023-07-20T01:53:39;4.28;;;1.65;;
54919;SDS011;63804;53.120;8.764;2023-07-20T01:56:06;3.38;;;1.45;;
54919;SDS011;63804;53.120;8.764;2023-07-20T01:58:33;1.70;;;1.23;;
54919;SDS011;63804;53.120;8.764;2023-07-20T02:01:01;2.92;;;1.30;;
54919;SDS011;63804;53.120;8.764;2023-07-20T02:03:29;2.10;;;1.48;;
54919;SDS011;63804;53.120;8.764;2023-07-20T02:05:56;1.48;;;1.00;;
54919;SDS011;63804;53.120;8.764;2023-07-20T02:08:26;2.05;;;1.20;;
54919;SDS011;63804;53.120;8.764;2023-07-20T02:10:53;1.17;;;1.08;;
54919;SDS011;63804;53.120;8.764;2023-07-20T02:13:20;1.60;;;1.00;;
54919;SDS011;63804;53.120;8.764;2023-07-20T02:15:47;2.42;;;0.90;;
54919;SDS011;63804;53.120;8.764;2023-07-20T02:18:16;1.40;;;0.70;;
54919;SDS011;63804;53.120;8.764;2023-07-20T02:20:43;1.92;;;0.57;;
54919;SDS011;63804;53.120;8.764;2023-07-20T02:23:11;1.65;;;0.63;;
54919;SDS011;63804;53.120;8.764;2023-07-20T02:25:39;1.45;;;0.60;;
54919;SDS011;63804;53.120;8.764;2023-07-20T02:28:07;1.25;;;0.60;;
54919;SDS011;63804;53.120;8.764;2023-07-20T02:30:37;1.05;;;0.52;;
54919;SDS011;63804;53.120;8.764;2023-07-20T02:33:06;1.90;;;0.63;;
54919;SDS011;63804;53.120;8.764;2023-07-20T02:35:34;2.20;;;0.77;;
54919;SDS011;63804;53.120;8.764;2023-07-20T02:38:02;0.82;;;0.68;;
54919;SDS011;63804;53.120;8.764;2023-07-20T02:40:30;0.80;;;0.50;;
54919;SDS011;63804;53.120;8.764;2023-07-20T02:42:57;1.48;;;0.85;;
54919;SDS011;63804;53.120;8.764;2023-07-20T02:45:24;0.98;;;0.70;;
54919;SDS011;63804;53.120;8.764;2023-07-20T02:47:51;1.00;;;0.63;;
54919;SDS011;63804;53.120;8.764;2023-07-20T02:50:19;2.17;;;1.45;;
54919;SDS011;63804;53.120;8.764;2023-07-20T02:52:46;3.25;;;1.58;;
54919;SDS011;63804;53.120;8.764;2023-07-20T02:55:13;4.65;;;1.77;;
54919;SDS011;63804;53.120;8.764;2023-07-20T02:57:41;3.03;;;1.80;;
54919;SDS011;63804;53.120;8.764;2023-07-20T03:00:09;4.80;;;2.00;;
54919;SDS011;63804;53.120;8.764;2023-07-20T03:02:38;4.00;;;1.77;;
54919;SDS011;63804;53.120;8.764;2023-07-20T03:05:06;3.70;;;1.88;;
54919;SDS011;63804;53.120;8.764;2023-07-20T03:07:34;4.93;;;2.22;;
54919;SDS011;63804;53.120;8.764;2023-07-20T03:10:01;5.63;;;2.08;;
54919;SDS011;63804;53.120;8.764;2023-07-20T03:12:29;4.32;;;2.35;;
54919;SDS011;63804;53.120;8.764;2023-07-20T03:14:57;4.72;;;2.20;;
54919;SDS011;63804;53.120;8.764;2023-07-20T03:17:24;6.32;;;2.58;;
54919;SDS011;63804;53.120;8.764;2023-07-20T03:19:51;3.72;;;2.50;;
54919;SDS011;63804;53.120;8.764;2023-07-20T03:22:19;4.90;;;2.35;;
54919;SDS011;63804;53.120;8.764;2023-07-20T03:24:48;5.30;;;2.65;;
54919;SDS011;63804;53.120;8.764;2023-07-20T03:27:15;5.35;;;2.38;;
54919;SDS011;63804;53.120;8.764;2023-07-20T03:29:42;4.00;;;2.30;;
54919;SDS011;63804;53.120;8.764;2023-07-20T03:32:11;3.88;;;2.20;;
54919;SDS011;63804;53.120;8.764;2023-07-20T03:34:38;5.28;;;2.20;;
54919;SDS011;63804;53.120;8.764;2023-07-20T03:37:05;3.85;;;2.25;;
54919;SDS011;63804;53.120;8.764;2023-07-20T03:39:33;4.38;;;2.10;;
54919;SDS011;63804;53.120;8.764;2023-07-20T03:42:00;6.85;;;2.42;;
54919;SDS011;63804;53.120;8.764;2023-07-20T03:44:28;4.30;;;2.20;;
54919;SDS011;63804;53.120;8.764;2023-07-20T03:46:56;5.18;;;2.28;;
54919;SDS011;63804;53.120;8.764;2023-07-20T03:49:23;5.70;;;2.78;;
54919;SDS011;63804;53.120;8.764;2023-07-20T03:51:50;5.90;;;3.05;;
54919;SDS011;63804;53.120;8.764;2023-07-20T03:54:18;6.90;;;3.38;;
54919;SDS011;63804;53.120;8.764;2023-07-20T03:56:46;7.63;;;3.15;;
54919;SDS011;63804;53.120;8.764;2023-07-20T03:59:13;8.20;;;3.63;;
54919;SDS011;63804;53.120;8.764;2023-07-20T04:01:41;7.22;;;3.60;;
54919;SDS011;63804;53.120;8.764;2023-07-20T04:04:08;8.30;;;3.28;;
54919;SDS011;63804;53.120;8.764;2023-07-20T04:06:35;7.20;;;3.10;;
54919;SDS011;63804;53.120;8.764;2023-07-20T04:09:03;6.03;;;3.00;;
54919;SDS011;63804;53.120;8.764;2023-07-20T04:11:32;5.07;;;2.80;;
54919;SDS011;63804;53.120;8.764;2023-07-20T04:13:59;5.40;;;2.78;;
54919;SDS011;63804;53.120;8.764;2023-07-20T04:16:26;5.15;;;2.38;;
54919;SDS011;63804;53.120;8.764;2023-07-20T04:18:54;5.35;;;2.65;;
54919;SDS011;63804;53.120;8.764;2023-07-20T04:21:23;4.78;;;2.40;;
54919;SDS011;63804;53.120;8.764;2023-07-20T04:23:52;5.97;;;2.42;;
54919;SDS011;63804;53.120;8.764;2023-07-20T04:26:20;5.18;;;2.30;;
54919;SDS011;63804;53.120;8.764;2023-07-20T04:28:47;5.68;;;2.40;;
54919;SDS011;63804;53.120;8.764;2023-07-20T04:31:15;5.47;;;2.30;;
54919;SDS011;63804;53.120;8.764;2023-07-20T04:33:43;5.13;;;2.15;;
54919;SDS011;63804;53.120;8.764;2023-07-20T04:36:10;4.63;;;2.30;;
54919;SDS011;63804;53.120;8.764;2023-07-20T04:38:37;6.72;;;2.90;;
54919;SDS011;63804;53.120;8.764;2023-07-20T04:41:05;5.70;;;2.50;;
54919;SDS011;63804;53.120;8.764;2023-07-20T04:43:32;5.45;;;2.90;;
54919;SDS011;63804;53.120;8.764;2023-07-20T04:45:59;6.88;;;3.20;;
54919;SDS011;63804;53.120;8.764;2023-07-20T04:48:26;4.55;;;2.85;;
54919;SDS011;63804;53.120;8.764;2023-07-20T04:50:54;6.53;;;2.70;;
54919;SDS011;63804;53.120;8.764;2023-07-20T04:53:22;7.28;;;3.03;;
54919;SDS011;63804;53.120;8.764;2023-07-20T04:55:50;13.15;;;3.47;;
54919;SDS011;63804;53.120;8.764;2023-07-20T04:58:19;6.68;;;2.88;;
54919;SDS011;63804;53.120;8.764;2023-07-20T05:00:48;6.00;;;3.03;;
54919;SDS011;63804;53.120;8.764;2023-07-20T05:03:15;6.10;;;2.80;;
54919;SDS011;63804;53.120;8.764;2023-07-20T05:05:43;7.28;;;3.25;;
54919;SDS011;63804;53.120;8.764;2023-07-20T05:08:14;6.45;;;3.00;;
54919;SDS011;63804;53.120;8.764;2023-07-20T05:10:41;7.28;;;3.13;;
54919;SDS011;63804;53.120;8.764;2023-07-20T05:13:08;7.82;;;2.90;;
54919;SDS011;63804;53.120;8.764;2023-07-20T05:15:35;6.88;;;3.58;;
54919;SDS011;63804;53.120;8.764;2023-07-20T05:18:03;8.10;;;3.97;;
54919;SDS011;63804;53.120;8.764;2023-07-20T05:20:30;13.55;;;4.97;;
54919;SDS011;63804;53.120;8.764;2023-07-20T05:22:59;10.85;;;5.53;;
54919;SDS011;63804;53.120;8.764;2023-07-20T05:25:27;13.27;;;5.82;;
54919;SDS011;63804;53.120;8.764;2023-07-20T05:27:57;10.73;;;4.90;;
54919;SDS011;63804;53.120;8.764;2023-07-20T05:30:24;10.63;;;4.90;;
54919;SDS011;63804;53.120;8.764;2023-07-20T05:32:52;10.77;;;4.35;;
54919;SDS011;63804;53.120;8.764;2023-07-20T05:35:21;8.75;;;3.50;;
54919;SDS011;63804;53.120;8.764;2023-07-20T05:37:49;10.93;;;3.40;;
54919;SDS011;63804;53.120;8.764;2023-07-20T05:40:16;9.00;;;3.03;;
54919;SDS011;63804;53.120;8.764;2023-07-20T05:42:46;11.85;;;3.00;;
54919;SDS011;63804;53.120;8.764;2023-07-20T05:45:19;8.93;;;3.80;;
54919;SDS011;63804;53.120;8.764;2023-07-20T05:47:47;9.27;;;3.70;;
54919;SDS011;63804;53.120;8.764;2023-07-20T05:50:14;8.77;;;3.25;;
54919;SDS011;63804;53.120;8.764;2023-07-20T05:52:41;7.35;;;3.10;;
54919;SDS011;63804;53.120;8.764;2023-07-20T05:55:09;6.30;;;2.33;;
54919;SDS011;63804;53.120;8.764;2023-07-20T05:57:36;8.20;;;2.50;;
54919;SDS011;63804;53.120;8.764;2023-07-20T06:00:06;4.78;;;2.00;;
54919;SDS011;63804;53.120;8.764;2023-07-20T06:02:34;3.70;;;1.90;;
54919;SDS011;63804;53.120;8.764;2023-07-20T06:05:01;3.65;;;1.88;;
54919;SDS011;63804;53.120;8.764;2023-07-20T06:07:29;6.32;;;2.05;;
54919;SDS011;63804;53.120;8.764;2023-07-20T06:09:56;7.35;;;2.00;;
54919;SDS011;63804;53.120;8.764;2023-07-20T06:12:25;6.72;;;1.73;;
54919;SDS011;63804;53.120;8.764;2023-07-20T06:14:52;6.05;;;1.45;;
54919;SDS011;63804;53.120;8.764;2023-07-20T06:17:20;2.95;;;1.27;;
54919;SDS011;63804;53.120;8.764;2023-07-20T06:19:47;4.22;;;1.38;;
54919;SDS011;63804;53.120;8.764;2023-07-20T06:22:15;2.47;;;1.20;;
54919;SDS011;63804;53.120;8.764;2023-07-20T06:24:42;3.42;;;1.20;;
54919;SDS011;63804;53.120;8.764;2023-07-20T06:27:10;1.85;;;1.00;;
54919;SDS011;63804;53.120;8.764;2023-07-20T06:29:37;3.85;;;1.15;;
54919;SDS011;63804;53.120;8.764;2023-07-20T06:32:05;2.85;;;0.90;;
54919;SDS011;63804;53.120;8.764;2023-07-20T06:34:33;1.88;;;0.90;;
54919;SDS011;63804;53.120;8.764;2023-07-20T06:37:04;3.45;;;1.30;;
54919;SDS011;63804;53.120;8.764;2023-07-20T06:39:31;5.05;;;1.13;;
54919;SDS011;63804;53.120;8.764;2023-07-20T06:42:01;3.33;;;1.02;;
54919;SDS011;63804;53.120;8.764;2023-07-20T06:44:29;1.70;;;0.85;;
54919;SDS011;63804;53.120;8.764;2023-07-20T06:46:56;2.55;;;0.90;;
54919;SDS011;63804;53.120;8.764;2023-07-20T06:49:27;5.70;;;0.90;;
54919;SDS011;63804;53.120;8.764;2023-07-20T06:51:54;4.30;;;1.10;;
54919;SDS011;63804;53.120;8.764;2023-07-20T06:54:22;6.93;;;1.30;;
54919;SDS011;63804;53.120;8.764;2023-07-20T06:56:50;2.92;;;1.00;;
54919;SDS011;63804;53.120;8.764;2023-07-20T06:59:20;2.83;;;1.00;;
54919;SDS011;63804;53.120;8.764;2023-07-20T07:01:48;3.13;;;0.80;;
54919;SDS011;63804;53.120;8.764;2023-07-20T07:04:15;3.88;;;1.20;;
54919;SDS011;63804;53.120;8.764;2023-07-20T07:06:43;1.92;;;0.85;;
54919;SDS011;63804;53.120;8.764;2023-07-20T07:09:11;3.65;;;0.93;;
54919;SDS011;63804;53.120;8.764;2023-07-20T07:11:38;3.08;;;0.90;;
54919;SDS011;63804;53.120;8.764;2023-07-20T07:14:06;5.40;;;1.48;;
54919;SDS011;63804;53.120;8.764;2023-07-20T07:16:34;2.60;;;0.85;;
54919;SDS011;63804;53.120;8.764;2023-07-20T07:19:05;5.70;;;1.00;;
54919;SDS011;63804;53.120;8.764;2023-07-20T07:21:34;6.70;;;1.23;;
54919;SDS011;63804;53.120;8.764;2023-07-20T07:24:01;1.50;;;0.82;;
54919;SDS011;63804;53.120;8.764;2023-07-20T07:26:28;7.90;;;0.90;;
54919;SDS011;63804;53.120;8.764;2023-07-20T07:28:56;4.72;;;1.10;;
54919;SDS011;63804;53.120;8.764;2023-07-20T07:31:24;4.63;;;1.20;;
54919;SDS011;63804;53.120;8.764;2023-07-20T07:33:52;3.95;;;1.20;;
54919;SDS011;63804;53.120;8.764;2023-07-20T07:36:19;4.05;;;1.10;;
54919;SDS011;63804;53.120;8.764;2023-07-20T07:38:47;6.63;;;1.00;;
54919;SDS011;63804;53.120;8.764;2023-07-20T07:41:35;4.47;;;1.20;;
54919;SDS011;63804;53.120;8.764;2023-07-20T07:44:02;6.07;;;1.35;;
54919;SDS011;63804;53.120;8.764;2023-07-20T07:46:29;5.30;;;1.15;;
54919;SDS011;63804;53.120;8.764;2023-07-20T07:48:56;2.38;;;1.13;;
54919;SDS011;63804;53.120;8.764;2023-07-20T07:51:24;3.83;;;0.80;;
54919;SDS011;63804;53.120;8.764;2023-07-20T07:53:51;6.35;;;1.10;;
54919;SDS011;63804;53.120;8.764;2023-07-20T07:56:19;2.55;;;0.95;;
54919;SDS011;63804;53.120;8.764;2023-07-20T07:58:50;5.45;;;1.13;;
54919;SDS011;63804;53.120;8.764;2023-07-20T08:01:20;6.18;;;1.20;;
54919;SDS011;63804;53.120;8.764;2023-07-20T08:03:49;5.50;;;1.10;;
54919;SDS011;63804;53.120;8.764;2023-07-20T08:06:17;4.00;;;1.42;;
54919;SDS011;63804;53.120;8.764;2023-07-20T08:08:45;4.03;;;1.30;;
54919;SDS011;63804;53.120;8.764;2023-07-20T08:11:12;3.05;;;1.00;;
54919;SDS011;63804;53.120;8.764;2023-07-20T08:13:41;7.28;;;1.60;;
54919;SDS011;63804;53.120;8.764;2023-07-20T08:16:09;4.10;;;1.50;;
54919;SDS011;63804;53.120;8.764;2023-07-20T08:18:36;4.80;;;1.38;;
54919;SDS011;63804;53.120;8.764;2023-07-20T08:21:03;3.88;;;1.48;;
54919;SDS011;63804;53.120;8.764;2023-07-20T08:23:31;6.07;;;1.75;;
54919;SDS011;63804;53.120;8.764;2023-07-20T08:25:58;5.57;;;1.52;;
54919;SDS011;63804;53.120;8.764;2023-07-20T08:28:25;5.75;;;1.70;;
54919;SDS011;63804;53.120;8.764;2023-07-20T08:30:53;4.88;;;1.30;;
54919;SDS011;63804;53.120;8.764;2023-07-20T08:33:21;3.80;;;1.40;;
54919;SDS011;63804;53.120;8.764;2023-07-20T08:35:48;6.78;;;1.45;;
54919;SDS011;63804;53.120;8.764;2023-07-20T08:38:15;4.95;;;1.35;;
54919;SDS011;63804;53.120;8.764;2023-07-20T08:40:46;3.72;;;1.70;;
54919;SDS011;63804;53.120;8.764;2023-07-20T08:43:14;5.18;;;1.30;;
54919;SDS011;63804;53.120;8.764;2023-07-20T08:45:45;5.50;;;1.38;;
54919;SDS011;63804;53.120;8.764;2023-07-20T08:48:14;3.85;;;1.50;;
54919;SDS011;63804;53.120;8.764;2023-07-20T08:50:42;5.65;;;1.27;;
54919;SDS011;63804;53.120;8.764;2023-07-20T08:53:10;4.20;;;1.77;;
54919;SDS011;63804;53.120;8.764;2023-07-20T08:55:40;3.35;;;1.40;;
54919;SDS011;63804;53.120;8.764;2023-07-20T08:58:11;3.10;;;1.30;;
54919;SDS011;63804;53.120;8.764;2023-07-20T09:00:39;8.32;;;3.08;;
54919;SDS011;63804;53.120;8.764;2023-07-20T09:03:12;11.07;;;3.92;;
54919;SDS011;63804;53.120;8.764;2023-07-20T09:05:41;6.18;;;2.47;;
54919;SDS011;63804;53.120;8.764;2023-07-20T09:08:08;9.15;;;2.08;;
54919;SDS011;63804;53.120;8.764;2023-07-20T09:10:36;7.63;;;2.10;;
54919;SDS011;63804;53.120;8.764;2023-07-20T09:13:03;5.63;;;1.38;;
54919;SDS011;63804;53.120;8.764;2023-07-20T09:15:30;3.97;;;1.50;;
54919;SDS011;63804;53.120;8.764;2023-07-20T09:18:00;7.47;;;1.65;;
54919;SDS011;63804;53.120;8.764;2023-07-20T09:20:30;5.43;;;2.05;;
54919;SDS011;63804;53.120;8.764;2023-07-20T09:22:59;6.90;;;1.70;;
54919;SDS011;63804;53.120;8.764;2023-07-20T09:25:27;4.28;;;1.35;;
54919;SDS011;63804;53.120;8.764;2023-07-20T09:27:58;6.75;;;1.40;;
54919;SDS011;63804;53.120;8.764;2023-07-20T09:30:31;4.82;;;1.60;;
54919;SDS011;63804;53.120;8.764;2023-07-20T09:32:59;4.43;;;1.30;;
54919;SDS011;63804;53.120;8.764;2023-07-20T09:35:27;2.78;;;1.40;;
54919;SDS011;63804;53.120;8.764;2023-07-20T09:38:08;6.90;;;1.95;;
54919;SDS011;63804;53.120;8.764;2023-07-20T09:40:39;7.00;;;2.42;;
54919;SDS011;63804;53.120;8.764;2023-07-20T09:43:10;8.73;;;2.13;;
54919;SDS011;63804;53.120;8.764;2023-07-20T09:45:41;5.07;;;1.70;;
54919;SDS011;63804;53.120;8.764;2023-07-20T09:48:12;4.13;;;1.40;;
54919;SDS011;63804;53.120;8.764;2023-07-20T09:50:51;5.35;;;1.67;;
54919;SDS011;63804;53.120;8.764;2023-07-20T09:53:19;3.45;;;1.48;;
54919;SDS011;63804;53.120;8.764;2023-07-20T09:55:47;6.28;;;1.52;;
54919;SDS011;63804;53.120;8.764;2023-07-20T09:58:15;9.43;;;2.22;;
54919;SDS011;63804;53.120;8.764;2023-07-20T10:00:44;5.70;;;1.60;;
54919;SDS011;63804;53.120;8.764;2023-07-20T10:03:20;7.18;;;1.80;;
54919;SDS011;63804;53.120;8.764;2023-07-20T10:06:06;5.65;;;2.45;;
54919;SDS011;63804;53.120;8.764;2023-07-20T10:08:38;5.28;;;1.42;;
54919;SDS011;63804;53.120;8.764;2023-07-20T10:11:10;3.97;;;1.60;;
54919;SDS011;63804;53.120;8.764;2023-07-20T10:13:41;6.20;;;1.50;;
54919;SDS011;63804;53.120;8.764;2023-07-20T10:16:14;4.45;;;1.58;;
54919;SDS011;63804;53.120;8.764;2023-07-20T10:18:59;4.50;;;1.60;;
54919;SDS011;63804;53.120;8.764;2023-07-20T10:21:42;6.70;;;1.70;;
54919;SDS011;63804;53.120;8.764;2023-07-20T10:24:21;8.13;;;1.90;;
54919;SDS011;63804;53.120;8.764;2023-07-20T10:26:50;6.38;;;2.10;;
54919;SDS011;63804;53.120;8.764;2023-07-20T10:29:17;5.30;;;1.60;;
54919;SDS011;63804;53.120;8.764;2023-07-20T10:31:46;6.78;;;1.98;;
54919;SDS011;63804;53.120;8.764;2023-07-20T10:34:13;4.43;;;1.52;;
54919;SDS011;63804;53.120;8.764;2023-07-20T10:36:44;3.38;;;1.40;;
54919;SDS011;63804;53.120;8.764;2023-07-20T10:39:25;4.57;;;1.60;;
54919;SDS011;63804;53.120;8.764;2023-07-20T10:42:01;5.55;;;1.58;;
54919;SDS011;63804;53.120;8.764;2023-07-20T10:44:38;3.95;;;1.50;;
54919;SDS011;63804;53.120;8.764;2023-07-20T10:47:10;3.92;;;1.30;;
54919;SDS011;63804;53.120;8.764;2023-07-20T10:49:58;3.80;;;1.42;;
54919;SDS011;63804;53.120;8.764;2023-07-20T10:52:37;4.53;;;1.38;;
54919;SDS011;63804;53.120;8.764;2023-07-20T10:55:14;4.45;;;1.40;;
54919;SDS011;63804;53.120;8.764;2023-07-20T10:57:43;3.28;;;1.20;;
54919;SDS011;63804;53.120;8.764;2023-07-20T11:00:12;5.10;;;1.77;;
54919;SDS011;63804;53.120;8.764;2023-07-20T11:02:50;5.57;;;1.60;;
54919;SDS011;63804;53.120;8.764;2023-07-20T11:05:36;6.68;;;1.65;;
54919;SDS011;63804;53.120;8.764;2023-07-20T11:08:09;4.88;;;1.55;;
54919;SDS011;63804;53.120;8.764;2023-07-20T11:10:37;5.10;;;1.60;;
54919;SDS011;63804;53.120;8.764;2023-07-20T11:13:18;6.25;;;1.40;;
54919;SDS011;63804;53.120;8.764;2023-07-20T11:15:47;4.63;;;1.52;;
54919;SDS011;63804;53.120;8.764;2023-07-20T11:18:27;4.32;;;1.30;;
54919;SDS011;63804;53.120;8.764;2023-07-20T11:20:55;4.35;;;1.42;;
54919;SDS011;63804;53.120;8.764;2023-07-20T11:23:22;5.03;;;1.50;;
54919;SDS011;63804;53.120;8.764;2023-07-20T11:25:50;3.72;;;1.42;;
54919;SDS011;63804;53.120;8.764;2023-07-20T11:28:17;6.25;;;1.70;;
54919;SDS011;63804;53.120;8.764;2023-07-20T11:30:44;4.47;;;1.65;;
54919;SDS011;63804;53.120;8.764;2023-07-20T11:33:12;4.05;;;1.80;;
54919;SDS011;63804;53.120;8.764;2023-07-20T11:35:42;8.18;;;1.70;;
54919;SDS011;63804;53.120;8.764;2023-07-20T11:38:11;5.53;;;1.40;;
54919;SDS011;63804;53.120;8.764;2023-07-20T11:40:46;4.18;;;1.42;;
54919;SDS011;63804;53.120;8.764;2023-07-20T11:43:13;6.35;;;1.80;;
54919;SDS011;63804;53.120;8.764;2023-07-20T11:45:44;5.88;;;2.35;;
54919;SDS011;63804;53.120;8.764;2023-07-20T11:48:15;6.03;;;1.80;;
54919;SDS011;63804;53.120;8.764;2023-07-20T11:50:43;4.70;;;1.63;;
54919;SDS011;63804;53.120;8.764;2023-07-20T11:53:11;2.42;;;1.02;;
54919;SDS011;63804;53.120;8.764;2023-07-20T11:55:39;5.28;;;1.20;;
54919;SDS011;63804;53.120;8.764;2023-07-20T11:58:08;3.92;;;1.10;;
54919;SDS011;63804;53.120;8.764;2023-07-20T12:00:38;4.72;;;1.15;;
54919;SDS011;63804;53.120;8.764;2023-07-20T12:03:07;4.43;;;1.05;;
54919;SDS011;63804;53.120;8.764;2023-07-20T12:05:34;3.00;;;1.05;;
54919;SDS011;63804;53.120;8.764;2023-07-20T12:08:21;3.50;;;1.17;;
54919;SDS011;63804;53.120;8.764;2023-07-20T12:10:48;3.75;;;0.82;;
54919;SDS011;63804;53.120;8.764;2023-07-20T12:13:16;4.05;;;1.10;;
54919;SDS011;63804;53.120;8.764;2023-07-20T12:15:44;3.30;;;0.80;;
54919;SDS011;63804;53.120;8.764;2023-07-20T12:18:11;4.57;;;1.15;;
54919;SDS011;63804;53.120;8.764;2023-07-20T12:20:38;3.22;;;0.93;;
54919;SDS011;63804;53.120;8.764;2023-07-20T12:23:10;3.78;;;0.75;;
54919;SDS011;63804;53.120;8.764;2023-07-20T12:28:16;2.95;;;1.00;;
54919;SDS011;63804;53.120;8.764;2023-07-20T12:30:46;3.67;;;0.85;;
54919;SDS011;63804;53.120;8.764;2023-07-20T12:33:23;3.83;;;1.00;;
54919;SDS011;63804;53.120;8.764;2023-07-20T12:35:51;5.68;;;1.20;;
54919;SDS011;63804;53.120;8.764;2023-07-20T12:38:22;2.88;;;0.90;;
54919;SDS011;63804;53.120;8.764;2023-07-20T12:40:50;3.17;;;0.90;;
54919;SDS011;63804;53.120;8.764;2023-07-20T12:43:17;3.70;;;1.08;;
54919;SDS011;63804;53.120;8.764;2023-07-20T12:45:45;2.85;;;1.10;;
54919;SDS011;63804;53.120;8.764;2023-07-20T12:48:12;3.63;;;0.93;;
54919;SDS011;63804;53.120;8.764;2023-07-20T12:50:39;3.53;;;1.10;;
54919;SDS011;63804;53.120;8.764;2023-07-20T12:53:07;3.25;;;0.90;;
54919;SDS011;63804;53.120;8.764;2023-07-20T12:55:34;3.03;;;0.93;;
54919;SDS011;63804;53.120;8.764;2023-07-20T12:58:02;3.35;;;0.93;;
54919;SDS011;63804;53.120;8.764;2023-07-20T13:00:29;2.67;;;1.00;;
54919;SDS011;63804;53.120;8.764;2023-07-20T13:02:56;3.90;;;0.98;;
54919;SDS011;63804;53.120;8.764;2023-07-20T13:05:27;4.63;;;1.00;;
54919;SDS011;63804;53.120;8.764;2023-07-20T13:07:57;3.53;;;0.90;;
54919;SDS011;63804;53.120;8.764;2023-07-20T13:10:30;4.00;;;0.93;;
54919;SDS011;63804;53.120;8.764;2023-07-20T13:12:59;2.25;;;0.80;;
54919;SDS011;63804;53.120;8.764;2023-07-20T13:15:31;3.17;;;0.90;;
54919;SDS011;63804;53.120;8.764;2023-07-20T13:17:59;4.43;;;0.90;;
54919;SDS011;63804;53.120;8.764;2023-07-20T13:20:27;5.75;;;1.25;;
54919;SDS011;63804;53.120;8.764;2023-07-20T13:22:55;5.18;;;0.98;;
54919;SDS011;63804;53.120;8.764;2023-07-20T13:25:22;4.68;;;1.10;;
54919;SDS011;63804;53.120;8.764;2023-07-20T13:27:49;4.32;;;1.05;;
54919;SDS011;63804;53.120;8.764;2023-07-20T13:30:17;6.85;;;1.30;;
54919;SDS011;63804;53.120;8.764;2023-07-20T13:32:44;5.88;;;1.10;;
54919;SDS011;63804;53.120;8.764;2023-07-20T13:35:12;3.97;;;1.10;;
54919;SDS011;63804;53.120;8.764;2023-07-20T13:37:39;5.82;;;1.05;;
54919;SDS011;63804;53.120;8.764;2023-07-20T13:40:08;6.90;;;1.20;;
54919;SDS011;63804;53.120;8.764;2023-07-20T13:42:40;3.55;;;1.05;;
54919;SDS011;63804;53.120;8.764;2023-07-20T13:45:07;8.25;;;1.17;;
54919;SDS011;63804;53.120;8.764;2023-07-20T13:47:35;3.08;;;1.00;;
54919;SDS011;63804;53.120;8.764;2023-07-20T13:50:03;3.25;;;0.95;;
54919;SDS011;63804;53.120;8.764;2023-07-20T13:52:31;4.68;;;0.90;;
54919;SDS011;63804;53.120;8.764;2023-07-20T13:55:02;2.40;;;1.00;;
54919;SDS011;63804;53.120;8.764;2023-07-20T13:57:31;3.58;;;0.70;;
54919;SDS011;63804;53.120;8.764;2023-07-20T14:00:02;3.17;;;1.13;;
54919;SDS011;63804;53.120;8.764;2023-07-20T14:02:35;2.30;;;0.90;;
54919;SDS011;63804;53.120;8.764;2023-07-20T14:05:06;3.60;;;1.00;;
54919;SDS011;63804;53.120;8.764;2023-07-20T14:07:37;4.05;;;0.77;;
54919;SDS011;63804;53.120;8.764;2023-07-20T14:10:04;3.42;;;1.17;;
54919;SDS011;63804;53.120;8.764;2023-07-20T14:12:35;6.82;;;1.30;;
54919;SDS011;63804;53.120;8.764;2023-07-20T14:15:02;5.55;;;1.00;;
54919;SDS011;63804;53.120;8.764;2023-07-20T14:17:31;4.45;;;1.00;;
54919;SDS011;63804;53.120;8.764;2023-07-20T14:19:59;2.47;;;0.60;;
54919;SDS011;63804;53.120;8.764;2023-07-20T14:22:26;1.23;;;0.70;;
54919;SDS011;63804;53.120;8.764;2023-07-20T14:24:53;2.90;;;0.80;;
54919;SDS011;63804;53.120;8.764;2023-07-20T14:27:21;1.63;;;0.80;;
54919;SDS011;63804;53.120;8.764;2023-07-20T14:29:49;2.83;;;0.85;;
54919;SDS011;63804;53.120;8.764;2023-07-20T14:32:16;3.00;;;1.10;;
54919;SDS011;63804;53.120;8.764;2023-07-20T14:34:46;2.22;;;0.82;;
54919;SDS011;63804;53.120;8.764;2023-07-20T14:37:13;3.75;;;1.00;;
54919;SDS011;63804;53.120;8.764;2023-07-20T14:39:40;2.47;;;1.00;;
54919;SDS011;63804;53.120;8.764;2023-07-20T14:42:08;4.38;;;0.98;;
54919;SDS011;63804;53.120;8.764;2023-07-20T14:44:35;4.43;;;1.13;;
54919;SDS011;63804;53.120;8.764;2023-07-20T14:47:04;4.82;;;1.23;;
54919;SDS011;63804;53.120;8.764;2023-07-20T14:49:41;3.95;;;1.27;;
54919;SDS011;63804;53.120;8.764;2023-07-20T14:52:08;3.63;;;0.98;;
54919;SDS011;63804;53.120;8.764;2023-07-20T14:54:39;1.92;;;0.77;;
54919;SDS011;63804;53.120;8.764;2023-07-20T14:57:07;5.43;;;1.08;;
54919;SDS011;63804;53.120;8.764;2023-07-20T14:59:41;7.05;;;0.90;;
54919;SDS011;63804;53.120;8.764;2023-07-20T15:02:09;3.47;;;1.10;;
54919;SDS011;63804;53.120;8.764;2023-07-20T15:04:36;4.45;;;1.27;;
54919;SDS011;63804;53.120;8.764;2023-07-20T15:07:04;5.35;;;0.80;;
54919;SDS011;63804;53.120;8.764;2023-07-20T15:09:31;9.88;;;3.50;;
54919;SDS011;63804;53.120;8.764;2023-07-20T15:12:00;4.72;;;1.05;;